Columbus, Ohio
Traffic Map
Current Weather Conditions
Columbus, Ohio
Broken Clouds
Broken Clouds
23°
Feels Like: 23°
Wind Chill: 23° Ceiling: 7000
Heat Index: 23° Visibility: 10mi
Dew Point: 16° Wind: 6mph
Humidity: 66% Direction: 220° (SW)
Pressure: 30.11in Gusts: 0mph
Raw Report DataKCMH 260351Z 22005KT 10SM FEW050 BKN070 BKN140 23/16 A3011 RMK AO2 SLP191 T02280161 $
Traffic Incident Summary
Active as of:
Severity:
Category:
InformationThere was an issue retrieving the traffic information for this location. Please try a different location or try again shortly.
Advertisements
Track Severe Weather on mobile